createdAt,value
2018-09-26T00:00:41.567Z,44.02
2018-09-26T00:01:41.525Z,46.78
2018-09-26T00:02:41.481Z,47.54
2018-09-26T00:03:41.438Z,46.88
2018-09-26T00:04:41.399Z,47.63
2018-09-26T00:05:41.354Z,48.39
2018-09-26T00:06:41.323Z,47.16
2018-09-26T00:07:41.279Z,47.25
2018-09-26T00:08:41.238Z,48.68
2018-09-26T00:09:41.195Z,47.25
2018-09-26T00:10:41.159Z,48.77
2018-09-26T00:11:41.120Z,51.25
2018-09-26T00:12:41.084Z,51.25
2018-09-26T00:13:41.055Z,51.25
2018-09-26T00:14:41.005Z,51.15
2018-09-26T00:15:40.965Z,49.25
2018-09-26T00:16:40.921Z,46.97
2018-09-26T00:17:40.879Z,48.49
2018-09-26T00:18:40.839Z,48.68
2018-09-26T00:19:40.803Z,50.68
2018-09-26T00:20:40.768Z,50.96
2018-09-26T00:21:40.731Z,48.77
2018-09-26T00:22:40.679Z,47.16
2018-09-26T00:23:40.641Z,46.11
2018-09-26T00:24:40.613Z,49.44
2018-09-26T00:25:40.563Z,48.94
2018-09-26T00:26:40.526Z,49.60
2018-09-26T00:27:40.490Z,49.32
2018-09-26T00:28:40.446Z,48.01
2018-09-26T00:29:40.398Z,45.83
2018-09-26T00:30:40.359Z,46.20
2018-09-26T00:31:40.320Z,46.88
2018-09-26T00:32:40.290Z,46.20
2018-09-26T00:33:40.246Z,48.96
2018-09-26T00:34:40.213Z,48.96
2018-09-26T00:35:40.208Z,49.44
2018-09-26T00:36:40.123Z,49.35
2018-09-26T00:37:40.085Z,48.58
2018-09-26T00:38:40.048Z,48.46
2018-09-26T00:39:40.013Z,48.68
2018-09-26T00:40:39.971Z,47.25
2018-09-26T00:41:39.923Z,46.68
2018-09-26T00:42:39.889Z,48.21
2018-09-26T00:43:39.843Z,47.92
2018-09-26T00:44:39.815Z,48.30
2018-09-26T00:45:39.768Z,49.04
2018-09-26T00:46:39.742Z,50.96
2018-09-26T00:47:39.689Z,53.59
2018-09-26T00:48:39.648Z,53.24
2018-09-26T00:49:39.606Z,53.43
2018-09-26T00:50:39.564Z,52.86
2018-09-26T00:51:39.539Z,51.91
2018-09-26T00:52:39.497Z,52.10
2018-09-26T00:53:39.451Z,54.00
2018-09-26T00:54:39.407Z,54.96
2018-09-26T00:55:39.369Z,55.43
2018-09-26T00:56:39.330Z,55.33
2018-09-26T00:57:39.295Z,57.81
2018-09-26T00:58:39.255Z,57.90
2018-09-26T00:59:39.212Z,57.04
2018-09-26T01:00:39.169Z,57.81
2018-09-26T01:01:39.125Z,58.18
2018-09-26T01:02:39.091Z,58.18
2018-09-26T01:03:39.048Z,58.95
2018-09-26T01:04:39.010Z,58.85
2018-09-26T01:05:38.975Z,58.28
2018-09-26T01:06:38.933Z,57.52
2018-09-26T01:07:38.903Z,56.29
2018-09-26T01:08:38.849Z,54.77
2018-09-26T01:09:38.806Z,53.15
2018-09-26T01:10:38.772Z,50.68
2018-09-26T01:11:38.735Z,49.82
2018-09-26T01:12:38.691Z,47.54
2018-09-26T01:13:38.649Z,47.34
2018-09-26T01:14:38.612Z,48.39
2018-09-26T01:15:38.570Z,49.06
2018-09-26T01:16:38.535Z,47.73
2018-09-26T01:17:38.498Z,46.20
2018-09-26T01:18:38.454Z,44.02
2018-09-26T01:19:38.414Z,44.09
2018-09-26T01:20:38.372Z,44.28
2018-09-26T01:21:38.344Z,46.19
2018-09-26T01:22:38.292Z,46.01
2018-09-26T01:23:38.258Z,45.04
2018-09-26T01:24:38.217Z,44.02
2018-09-26T01:25:38.176Z,39.34
2018-09-26T01:26:38.133Z,39.62
2018-09-26T01:27:38.100Z,44.19
2018-09-26T01:28:38.059Z,47.54
2018-09-26T01:29:38.018Z,48.37
2018-09-26T01:30:37.977Z,49.35
2018-09-26T01:31:37.933Z,48.18
2018-09-26T01:32:37.894Z,47.52
2018-09-26T01:33:37.857Z,47.13
2018-09-26T01:34:37.816Z,47.04
2018-09-26T01:35:37.774Z,47.04
2018-09-26T01:36:37.739Z,46.66
2018-09-26T01:37:37.699Z,48.37
2018-09-26T01:38:37.661Z,48.75
2018-09-26T01:39:37.617Z,49.89
2018-09-26T01:40:37.574Z,51.41
2018-09-26T01:41:37.538Z,51.60
2018-09-26T01:42:37.498Z,51.79
2018-09-26T01:43:37.457Z,51.51
2018-09-26T01:44:37.416Z,51.03
2018-09-26T01:45:37.373Z,51.22
2018-09-26T01:46:37.333Z,50.56
2018-09-26T01:47:37.294Z,49.60
2018-09-26T01:48:37.258Z,49.60
2018-09-26T01:49:37.218Z,50.65
2018-09-26T01:50:37.183Z,51.31
2018-09-26T01:51:37.137Z,49.98
2018-09-26T01:52:37.096Z,49.89
2018-09-26T01:53:37.053Z,49.89
2018-09-26T01:54:37.013Z,49.79
2018-09-26T01:55:36.977Z,51.79
2018-09-26T01:56:36.938Z,55.59
2018-09-26T01:57:36.899Z,57.97
2018-09-26T01:58:36.853Z,57.97
2018-09-26T01:59:36.816Z,57.02
2018-09-26T02:00:36.777Z,56.45
2018-09-26T02:01:36.738Z,55.78
2018-09-26T02:02:36.698Z,55.97
2018-09-26T02:03:36.659Z,56.35
2018-09-26T02:04:36.620Z,56.54
2018-09-26T02:05:36.577Z,59.96
2018-09-26T02:06:36.539Z,58.92
2018-09-26T02:07:36.498Z,57.50
2018-09-26T02:08:36.456Z,57.30
2018-09-26T02:09:36.414Z,59.58
2018-09-26T02:10:36.376Z,60.25
2018-09-26T02:11:36.336Z,59.49
2018-09-26T02:12:36.300Z,57.40
2018-09-26T02:13:36.260Z,58.54
2018-09-26T02:14:36.245Z,60.72
2018-09-26T02:15:36.179Z,62.15
2018-09-26T02:16:36.139Z,61.48
2018-09-26T02:17:36.100Z,60.91
2018-09-26T02:18:36.060Z,63.48
2018-09-26T02:19:36.017Z,65.57
2018-09-26T02:20:35.979Z,65.51
2018-09-26T02:21:35.934Z,67.69
2018-09-26T02:22:35.899Z,67.79
2018-09-26T02:23:35.892Z,68.46
2018-09-26T02:24:35.817Z,69.12
2018-09-26T02:25:35.783Z,71.88
2018-09-26T02:26:35.740Z,73.21
2018-09-26T02:27:35.697Z,71.88
2018-09-26T02:28:35.658Z,72.16
2018-09-26T02:29:35.613Z,74.63
2018-09-26T02:30:35.598Z,77.30
2018-09-26T02:31:35.538Z,76.25
2018-09-26T02:32:35.502Z,77.87
2018-09-26T02:33:35.455Z,77.20
2018-09-26T02:34:35.416Z,75.68
2018-09-26T02:35:35.377Z,75.78
2018-09-26T02:36:35.347Z,77.20
2018-09-26T02:37:35.301Z,77.39
2018-09-26T02:38:35.260Z,78.53
2018-09-26T02:39:35.223Z,77.49
2018-09-26T02:40:35.178Z,76.82
2018-09-26T02:41:35.137Z,75.11
2018-09-26T02:42:35.095Z,75.78
2018-09-26T02:43:35.057Z,75.30
2018-09-26T02:44:35.020Z,72.55
2018-09-26T02:45:34.980Z,71.97
2018-09-26T02:46:34.944Z,71.69
2018-09-26T02:47:34.901Z,70.45
2018-09-26T02:48:34.860Z,69.50
2018-09-26T02:49:34.822Z,69.21
2018-09-26T02:50:34.808Z,68.84
2018-09-26T02:51:34.741Z,68.93
2018-09-26T02:52:34.703Z,67.50
2018-09-26T02:53:34.656Z,67.88
2018-09-26T02:54:34.670Z,65.80
2018-09-26T02:55:34.583Z,66.74
2018-09-26T02:56:34.541Z,65.41
2018-09-26T02:57:34.506Z,64.18
2018-09-26T02:58:34.465Z,63.99
2018-09-26T02:59:34.422Z,65.38
2018-09-26T03:00:34.381Z,64.34
2018-09-26T03:01:34.339Z,62.72
2018-09-26T03:02:34.305Z,62.62
2018-09-26T03:03:34.265Z,60.63
2018-09-26T03:04:34.220Z,58.73
2018-09-26T03:05:34.180Z,58.06
2018-09-26T03:06:34.139Z,55.69
2018-09-26T03:07:34.106Z,57.59
2018-09-26T03:08:34.068Z,58.44
2018-09-26T03:09:34.024Z,58.83
2018-09-26T03:10:33.985Z,59.58
2018-09-26T03:11:33.944Z,61.10
2018-09-26T03:12:33.904Z,62.72
2018-09-26T03:13:33.861Z,62.34
2018-09-26T03:14:33.824Z,63.95
2018-09-26T03:15:33.785Z,65.47
2018-09-26T03:16:33.745Z,65.00
2018-09-26T03:17:33.775Z,65.28
2018-09-26T03:18:33.663Z,65.76
2018-09-26T03:19:33.632Z,65.67
2018-09-26T03:20:33.586Z,65.38
2018-09-26T03:21:33.551Z,66.33
2018-09-26T03:22:33.509Z,63.76
2018-09-26T03:23:33.468Z,62.24
2018-09-26T03:24:33.424Z,60.72
2018-09-26T03:25:33.381Z,59.11
2018-09-26T03:26:33.340Z,58.25
2018-09-26T03:27:33.309Z,57.59
2018-09-26T03:28:33.264Z,59.58
2018-09-26T03:29:33.226Z,60.63
2018-09-26T03:30:33.187Z,59.30
2018-09-26T03:31:33.212Z,60.72
2018-09-26T03:32:33.104Z,61.01
2018-09-26T03:33:33.069Z,60.82
2018-09-26T03:34:33.030Z,63.01
2018-09-26T03:35:32.986Z,63.01
2018-09-26T03:36:32.953Z,62.91
2018-09-26T03:37:32.901Z,63.10
2018-09-26T03:38:32.863Z,62.43
2018-09-26T03:39:32.827Z,61.20
2018-09-26T03:40:32.790Z,62.05
2018-09-26T03:41:32.759Z,62.34
2018-09-26T03:42:32.708Z,65.00
2018-09-26T03:43:32.671Z,67.09
2018-09-26T03:44:32.626Z,68.80
2018-09-26T03:45:32.593Z,68.42
2018-09-26T03:46:32.542Z,68.42
2018-09-26T03:47:32.507Z,70.23
2018-09-26T03:48:32.473Z,71.08
2018-09-26T03:49:32.430Z,70.51
2018-09-26T03:50:32.383Z,73.74
2018-09-26T03:51:32.346Z,73.46
2018-09-26T03:52:32.309Z,72.51
2018-09-26T04:06:38.066Z,60.35
2018-09-26T04:07:37.973Z,60.63
2018-09-26T04:08:37.925Z,64.34
2018-09-26T04:09:37.883Z,66.14
2018-09-26T04:10:37.842Z,68.33
2018-09-26T04:11:37.801Z,71.56
2018-09-26T04:12:37.829Z,72.60
2018-09-26T04:13:37.708Z,69.37
2018-09-26T04:14:37.674Z,65.57
2018-09-26T04:15:37.669Z,63.95
2018-09-26T04:16:37.588Z,64.05
2018-09-26T04:17:37.557Z,63.57
2018-09-26T04:18:37.501Z,62.34
2018-09-26T04:19:37.464Z,63.67
2018-09-26T04:20:37.422Z,64.05
2018-09-26T04:21:37.378Z,62.24
2018-09-26T04:22:37.345Z,64.53
2018-09-26T04:23:37.308Z,64.62
2018-09-26T04:24:37.274Z,63.76
2018-09-26T04:25:37.223Z,64.72
2018-09-26T04:26:37.313Z,72.60
2018-09-26T04:27:37.192Z,71.94
2018-09-26T04:28:37.100Z,73.36
2018-09-26T04:29:37.060Z,72.03
2018-09-26T04:30:37.023Z,71.18
2018-09-26T04:31:36.981Z,71.27
2018-09-26T04:32:37.015Z,74.22
2018-09-26T04:33:36.979Z,73.08
2018-09-26T04:34:36.860Z,73.65
2018-09-26T04:35:36.821Z,74.41
2018-09-26T04:36:36.776Z,73.46
2018-09-26T04:37:36.740Z,72.89
2018-09-26T04:38:36.759Z,72.03
2018-09-26T04:39:36.659Z,73.65
2018-09-26T04:40:36.615Z,71.66
2018-09-26T04:41:36.572Z,75.36
2018-09-26T04:42:36.537Z,74.51
2018-09-26T04:43:36.494Z,72.03
2018-09-26T04:44:36.452Z,70.51
2018-09-26T04:45:36.411Z,69.09
2018-09-26T04:46:36.378Z,71.08
2018-09-26T04:47:36.335Z,68.61
2018-09-26T04:48:36.292Z,68.99
2018-09-26T04:49:36.254Z,70.70
2018-09-26T04:50:36.206Z,68.71
2018-09-26T04:51:36.172Z,68.23
2018-09-26T04:52:36.136Z,70.99
2018-09-26T04:53:36.087Z,70.04
2018-09-26T04:54:36.054Z,67.00
2018-09-26T04:55:36.016Z,66.14
2018-09-26T04:56:35.978Z,65.38
2018-09-26T04:57:35.937Z,65.57
2018-09-26T04:58:35.887Z,66.33
2018-09-26T04:59:35.851Z,66.71
2018-09-26T05:00:35.812Z,68.52
2018-09-26T05:01:35.775Z,69.66
2018-09-26T05:02:35.729Z,69.56
2018-09-26T05:03:35.688Z,70.79
2018-09-26T05:04:35.647Z,71.27
2018-09-26T05:05:35.608Z,71.94
2018-09-26T05:06:35.570Z,71.75
2018-09-26T05:07:35.530Z,72.03
2018-09-26T05:08:35.487Z,71.46
2018-09-26T05:09:35.449Z,71.94
2018-09-26T05:10:35.402Z,71.84
2018-09-26T05:11:36.953Z,71.84
2018-09-26T05:12:35.326Z,72.70
2018-09-26T05:13:35.287Z,71.84
2018-09-26T05:14:35.284Z,71.37
2018-09-26T05:15:35.207Z,71.66
2018-09-26T05:16:35.170Z,73.46
2018-09-26T05:17:35.124Z,72.32
2018-09-26T05:18:35.094Z,69.75
2018-09-26T05:19:35.052Z,67.94
2018-09-26T05:20:35.005Z,69.27
2018-09-26T05:21:34.969Z,71.56
2018-09-26T05:22:34.922Z,71.27
2018-09-26T05:23:34.886Z,69.56
2018-09-26T05:24:34.846Z,67.76
2018-09-26T05:25:34.804Z,66.90
2018-09-26T05:26:34.787Z,67.09
2018-09-26T05:27:34.726Z,67.66
2018-09-26T05:28:34.689Z,67.85
2018-09-26T05:29:34.651Z,68.52
2018-09-26T05:30:34.600Z,69.09
2018-09-26T05:31:34.567Z,69.09
2018-09-26T05:32:34.545Z,69.56
2018-09-26T05:33:34.486Z,69.66
2018-09-26T05:34:34.440Z,70.89
2018-09-26T05:35:34.406Z,71.27
2018-09-26T05:36:34.363Z,70.32
2018-09-26T05:37:34.319Z,69.37
2018-09-26T05:38:34.288Z,70.42
2018-09-26T05:39:34.256Z,68.80
2018-09-26T05:40:34.214Z,67.66
2018-09-26T05:41:34.175Z,67.09
2018-09-26T05:42:34.123Z,67.00
2018-09-26T05:43:34.081Z,67.47
2018-09-26T05:44:34.040Z,68.52
2018-09-26T05:45:34.000Z,67.57
2018-09-26T05:46:33.965Z,67.19
2018-09-26T05:47:33.924Z,66.90
2018-09-26T05:48:33.882Z,67.66
2018-09-26T05:49:33.837Z,68.04
2018-09-26T05:50:33.803Z,66.80
2018-09-26T05:51:33.761Z,66.71
2018-09-26T05:52:33.721Z,67.47
2018-09-26T05:53:33.775Z,66.80
2018-09-26T05:54:33.637Z,66.14
2018-09-26T05:55:33.599Z,65.09
2018-09-26T05:56:33.557Z,64.90
2018-09-26T05:57:33.523Z,65.47
2018-09-26T05:58:33.483Z,66.33
2018-09-26T05:59:33.492Z,66.14
2018-09-26T06:00:33.400Z,64.62
2018-09-26T06:01:33.363Z,64.05
2018-09-26T06:02:33.322Z,62.88
2018-09-26T06:03:33.284Z,61.48
2018-09-26T06:04:33.246Z,60.63
2018-09-26T06:05:33.243Z,59.87
2018-09-26T06:06:33.157Z,59.01
2018-09-26T06:07:33.117Z,62.53
2018-09-26T06:08:33.080Z,60.53
2018-09-26T06:09:33.034Z,61.20
2018-09-26T06:10:33.003Z,62.15
2018-09-26T06:11:32.958Z,63.76
2018-09-26T06:12:32.919Z,63.95
2018-09-26T06:13:32.884Z,63.76
2018-09-26T06:14:32.840Z,63.67
2018-09-26T06:15:32.797Z,64.43
2018-09-26T06:16:32.755Z,64.53
2018-09-26T06:17:32.713Z,66.80
2018-09-26T06:18:32.682Z,66.14
2018-09-26T06:19:32.640Z,65.28
2018-09-26T06:20:32.596Z,66.14
2018-09-26T06:21:32.554Z,66.80
2018-09-26T06:22:32.519Z,68.80
2018-09-26T06:23:32.495Z,68.23
2018-09-26T06:24:32.458Z,67.28
2018-09-26T06:25:32.402Z,65.47
2018-09-26T06:26:32.354Z,68.23
2018-09-26T06:27:32.315Z,68.42
2018-09-26T06:28:32.274Z,68.99
2018-09-26T06:29:32.240Z,69.18
2018-09-26T06:30:32.203Z,66.52
2018-09-26T06:31:32.161Z,69.46
2018-09-26T06:32:32.120Z,67.03
2018-09-26T06:33:32.081Z,67.69
2018-09-26T06:34:32.039Z,70.26
2018-09-26T06:35:31.996Z,70.54
2018-09-26T06:36:31.964Z,69.50
2018-09-26T06:37:31.919Z,71.41
2018-09-26T06:38:31.878Z,71.59
2018-09-26T06:39:31.835Z,70.45
2018-09-26T06:40:31.891Z,69.31
2018-09-26T06:41:31.757Z,71.59
2018-09-26T06:42:31.724Z,74.07
2018-09-26T06:43:31.709Z,72.74
2018-09-26T06:44:31.643Z,74.07
2018-09-26T06:45:31.605Z,74.54
2018-09-26T06:46:31.558Z,74.63
2018-09-26T06:47:31.570Z,75.68
2018-09-26T06:48:31.483Z,75.68
2018-09-26T06:49:31.440Z,74.92
2018-09-26T06:50:31.405Z,77.30
2018-09-26T06:51:31.362Z,78.72
2018-09-26T06:52:31.316Z,78.48
2018-09-26T06:53:31.284Z,78.53
2018-09-26T06:54:31.241Z,79.01
2018-09-26T06:55:31.207Z,78.06
2018-09-26T06:56:31.165Z,78.10
2018-09-26T06:57:31.123Z,79.43
2018-09-26T06:58:31.085Z,81.62
2018-09-26T06:59:31.039Z,80.29
2018-09-26T07:00:30.999Z,80.86
2018-09-26T07:01:30.965Z,80.86
2018-09-26T07:02:30.924Z,79.24
2018-09-26T07:03:30.887Z,79.62
2018-09-26T07:04:30.848Z,79.91
2018-09-26T07:05:30.805Z,80.29
2018-09-26T07:06:30.768Z,78.86
2018-09-26T07:07:30.724Z,80.66
2018-09-26T07:08:30.691Z,78.57
2018-09-26T07:09:30.648Z,80.57
2018-09-26T07:10:30.606Z,78.10
2018-09-26T07:11:30.565Z,81.24
2018-09-26T07:12:30.526Z,80.47
2018-09-26T07:13:30.487Z,80.66
2018-09-26T07:14:30.451Z,80.86
2018-09-26T07:15:30.432Z,79.91
2018-09-26T07:16:30.373Z,79.47
2018-09-26T07:17:30.332Z,80.33
2018-09-26T07:18:30.289Z,80.42
2018-09-26T07:19:30.251Z,80.80
2018-09-26T07:20:30.210Z,78.90
2018-09-26T07:21:30.171Z,77.76
2018-09-26T07:22:30.134Z,79.19
2018-09-26T07:23:30.098Z,74.99
2018-09-26T07:24:30.051Z,77.85
2018-09-26T07:25:30.033Z,77.76
2018-09-26T07:26:29.981Z,77.85
2018-09-26T07:27:29.940Z,78.71
2018-09-26T07:28:29.910Z,79.57
2018-09-26T07:29:29.862Z,79.94
2018-09-26T07:30:29.817Z,79.47
2018-09-26T07:31:29.821Z,79.85
2018-09-26T07:32:29.739Z,80.33
2018-09-26T07:33:29.700Z,79.19
2018-09-26T07:34:29.671Z,79.57
2018-09-26T07:35:29.629Z,77.37
2018-09-26T07:36:29.589Z,77.85
2018-09-26T07:37:29.547Z,76.56
2018-09-26T07:38:29.560Z,75.23
2018-09-26T07:39:29.465Z,73.61
2018-09-26T07:40:29.431Z,72.56
2018-09-26T07:41:29.389Z,72.08
2018-09-26T07:42:29.352Z,71.51
2018-09-26T07:43:29.313Z,70.18
2018-09-26T07:44:29.269Z,70.47
2018-09-26T07:45:29.300Z,71.42
2018-09-26T07:46:29.201Z,72.56
2018-09-26T07:47:29.161Z,72.56
2018-09-26T07:48:29.122Z,72.75
2018-09-26T07:49:29.078Z,73.51
2018-09-26T07:50:29.038Z,73.03
2018-09-26T07:51:29.002Z,73.32
2018-09-26T07:52:28.959Z,73.61
2018-09-26T07:53:28.921Z,77.22
2018-09-26T07:54:28.916Z,77.61
2018-09-26T07:55:28.855Z,75.23
2018-09-26T07:56:28.808Z,77.74
2018-09-26T07:57:28.768Z,77.64
2018-09-26T07:58:28.730Z,78.31
2018-09-26T07:59:28.697Z,74.98
2018-09-26T08:00:28.672Z,76.03
2018-09-26T08:01:28.614Z,71.93
2018-09-26T08:02:28.575Z,76.03
2018-09-26T08:03:28.536Z,77.93
2018-09-26T08:04:28.507Z,78.88
2018-09-26T08:05:28.459Z,78.31
2018-09-26T08:06:28.422Z,80.16
2018-09-26T08:07:28.387Z,82.54
2018-09-26T08:08:28.347Z,83.88
2018-09-26T08:09:28.307Z,85.31
2018-09-26T08:10:28.281Z,84.74
2018-09-26T08:11:28.321Z,85.02
2018-09-26T08:12:28.193Z,85.12
2018-09-26T08:13:28.156Z,85.97
2018-09-26T08:14:28.115Z,86.30
2018-09-26T08:15:28.075Z,88.02
2018-09-26T08:16:28.039Z,88.69
2018-09-26T08:17:28.005Z,87.64
2018-09-26T08:18:27.981Z,87.26
2018-09-26T08:19:27.929Z,87.83
2018-09-26T08:20:27.892Z,87.93
2018-09-26T08:21:27.851Z,88.59
2018-09-26T08:22:27.822Z,87.93
2018-09-26T08:23:27.774Z,88.02
2018-09-26T08:24:27.732Z,87.35
2018-09-26T08:25:27.697Z,88.50
2018-09-26T08:26:27.664Z,87.07
2018-09-26T08:27:27.624Z,87.26
2018-09-26T08:28:27.581Z,86.59
2018-09-26T08:29:27.546Z,86.44
2018-09-26T08:30:27.509Z,86.54
2018-09-26T08:31:27.521Z,86.92
2018-09-26T08:32:27.439Z,86.92
2018-09-26T08:33:27.395Z,86.63
2018-09-26T08:34:27.362Z,85.68
2018-09-26T08:35:27.317Z,86.16
2018-09-26T08:36:27.281Z,85.58
2018-09-26T08:37:27.246Z,84.63
2018-09-26T08:38:27.209Z,83.77
2018-09-26T08:39:27.174Z,83.67
2018-09-26T08:40:27.136Z,82.91
2018-09-26T08:41:27.096Z,82.34
2018-09-26T08:42:27.056Z,82.43
2018-09-26T08:43:27.019Z,81.48
2018-09-26T08:44:26.985Z,81.62
2018-09-26T08:45:26.949Z,82.00
2018-09-26T08:46:26.907Z,82.86
2018-09-26T08:47:26.869Z,82.67
2018-09-26T08:48:26.830Z,79.80
2018-09-26T08:49:26.796Z,79.71
2018-09-26T08:50:26.761Z,80.95
2018-09-26T08:51:26.726Z,81.24
2018-09-26T08:52:26.690Z,80.95
2018-09-26T08:53:26.651Z,78.09
2018-09-26T08:54:26.610Z,76.08
2018-09-26T08:55:26.570Z,75.60
2018-09-26T08:56:26.536Z,75.16
2018-09-26T08:57:26.499Z,75.07
2018-09-26T08:58:26.465Z,78.31
2018-09-26T08:59:28.008Z,81.56
2018-09-26T09:00:26.384Z,80.51
2018-09-26T09:01:26.352Z,77.74
2018-09-26T09:02:26.317Z,72.49
2018-09-26T09:03:26.280Z,74.98
2018-09-26T09:04:26.246Z,72.58
2018-09-26T09:05:26.208Z,67.71
2018-09-26T09:06:26.167Z,67.24
2018-09-26T09:07:26.129Z,66.89
2018-09-26T09:08:26.093Z,66.85
2018-09-26T09:09:26.055Z,68.13
2018-09-26T09:10:26.023Z,68.10
2018-09-26T09:11:25.989Z,69.56
2018-09-26T09:12:25.948Z,70.04
2018-09-26T09:13:25.909Z,71.19
2018-09-26T09:14:25.994Z,72.91
2018-09-26T09:15:25.836Z,72.91
2018-09-26T09:16:25.804Z,69.47
2018-09-26T09:17:25.764Z,71.00
2018-09-26T09:18:25.724Z,70.42
2018-09-26T09:19:25.688Z,70.04
2018-09-26T09:20:25.650Z,70.42
2018-09-26T09:21:25.619Z,71.28
2018-09-26T09:22:25.583Z,72.91
2018-09-26T09:23:25.548Z,72.81
2018-09-26T09:24:25.514Z,73.48
2018-09-26T09:25:25.473Z,72.62
2018-09-26T09:26:25.433Z,68.99
2018-09-26T09:27:25.405Z,66.41
2018-09-26T09:28:25.362Z,67.55
2018-09-26T09:29:25.326Z,66.41
2018-09-26T09:30:25.289Z,65.84
2018-09-26T09:31:25.253Z,65.74
2018-09-26T09:32:25.368Z,67.55
2018-09-26T09:33:25.180Z,64.31
2018-09-26T09:34:25.148Z,62.97
2018-09-26T09:35:25.114Z,64.50
2018-09-26T09:36:25.125Z,65.26
2018-09-26T09:37:25.034Z,65.93
2018-09-26T09:38:25.017Z,67.21
2018-09-26T09:39:24.958Z,69.41
2018-09-26T09:40:24.921Z,68.64
2018-09-26T09:41:24.895Z,68.35
2018-09-26T09:42:24.852Z,67.49
2018-09-26T09:43:24.818Z,67.21
2018-09-26T09:44:24.839Z,67.21
2018-09-26T09:45:24.742Z,67.49
2018-09-26T09:46:24.710Z,69.41
2018-09-26T09:47:24.671Z,68.74
2018-09-26T09:50:03.553Z,63.67
2018-09-26T09:50:57.490Z,62.43
2018-09-26T09:51:57.458Z,60.90
2018-09-26T09:52:57.422Z,61.76
2018-09-26T09:53:57.382Z,60.13
2018-09-26T09:54:57.344Z,60.04
2018-09-26T09:55:57.309Z,60.23
2018-09-26T09:56:57.273Z,59.47
2018-09-26T09:57:57.243Z,59.66
2018-09-26T09:58:57.210Z,59.84
2018-09-26T09:59:57.167Z,58.41
2018-09-26T10:00:57.134Z,58.54
2018-09-26T10:01:57.096Z,57.01
2018-09-26T10:02:57.163Z,55.86
2018-09-26T10:03:57.026Z,55.76
2018-09-26T10:04:56.992Z,55.76
2018-09-26T10:05:56.952Z,54.26
2018-09-26T10:20:56.181Z,53.33
2018-09-26T10:21:56.098Z,53.81
2018-09-26T10:22:56.058Z,53.33
2018-09-26T10:23:56.019Z,51.89
2018-09-26T10:24:55.979Z,52.09
2018-09-26T10:25:55.941Z,52.18
2018-09-26T10:26:55.899Z,50.84
2018-09-26T10:27:55.858Z,51.03
2018-09-26T10:28:55.825Z,51.61
2018-09-26T10:29:55.790Z,51.22
2018-09-26T10:30:55.743Z,51.89
2018-09-26T10:31:55.712Z,53.23
2018-09-26T10:32:55.682Z,52.66
2018-09-26T10:33:55.634Z,52.34
2018-09-26T10:34:55.646Z,52.56
2018-09-26T10:35:55.564Z,51.70
2018-09-26T10:36:55.532Z,50.26
2018-09-26T10:37:55.492Z,50.56
2018-09-26T10:38:55.466Z,50.93
2018-09-26T10:39:55.416Z,50.65
2018-09-26T10:40:55.426Z,50.93
2018-09-26T10:41:55.345Z,51.32
2018-09-26T10:42:55.312Z,51.51
2018-09-26T10:43:55.284Z,51.22
2018-09-26T10:44:55.237Z,51.79
2018-09-26T10:45:55.202Z,51.61
2018-09-26T10:46:55.168Z,51.99
2018-09-26T10:47:55.137Z,52.09
2018-09-26T10:48:55.098Z,51.42
2018-09-26T10:49:55.060Z,50.77
2018-09-26T10:50:55.021Z,49.91
2018-09-26T10:51:54.988Z,50.29
2018-09-26T10:52:54.955Z,50.67
2018-09-26T10:53:54.922Z,51.82
2018-09-26T10:54:54.883Z,51.06
2018-09-26T10:55:54.854Z,50.77
2018-09-26T10:56:54.820Z,50.38
2018-09-26T10:57:54.778Z,49.14
2018-09-26T10:58:54.740Z,48.75
2018-09-26T10:59:54.704Z,48.75
2018-09-26T11:00:54.690Z,50.26
2018-09-26T11:01:54.654Z,50.46
2018-09-26T11:02:54.598Z,51.79
2018-09-26T11:03:54.561Z,52.37
2018-09-26T11:04:54.535Z,51.70
2018-09-26T11:05:54.500Z,50.46
2018-09-26T11:06:54.459Z,49.05
2018-09-26T11:07:54.426Z,49.43
2018-09-26T11:08:54.392Z,50.29
2018-09-26T11:09:54.357Z,51.54
2018-09-26T11:10:54.319Z,52.01
2018-09-26T11:11:54.280Z,52.01
2018-09-26T11:12:54.249Z,52.97
2018-09-26T11:13:54.213Z,50.77
2018-09-26T11:14:54.181Z,51.25
2018-09-26T11:15:54.150Z,50.20
2018-09-26T11:16:54.105Z,49.14
2018-09-26T11:17:54.081Z,49.91
2018-09-26T11:18:54.111Z,49.52
2018-09-26T11:19:54.011Z,49.43
2018-09-26T11:20:53.975Z,49.24
2018-09-26T11:21:53.934Z,50.10
2018-09-26T11:22:53.896Z,49.81
2018-09-26T11:23:53.862Z,49.33
2018-09-26T11:24:53.824Z,49.05
2018-09-26T11:25:53.797Z,48.47
2018-09-26T11:26:53.759Z,49.14
2018-09-26T11:27:53.728Z,48.85
2018-09-26T11:28:53.693Z,50.38
2018-09-26T11:29:53.654Z,50.12
2018-09-26T11:30:53.617Z,49.36
2018-09-26T11:31:53.581Z,48.78
2018-09-26T11:32:53.555Z,49.65
2018-09-26T11:33:53.615Z,51.08
2018-09-26T11:34:53.478Z,50.51
2018-09-26T11:35:53.441Z,51.28
2018-09-26T11:36:53.410Z,51.28
2018-09-26T11:37:53.408Z,50.70
2018-09-26T11:38:53.358Z,51.08
2018-09-26T11:39:53.334Z,50.32
2018-09-26T11:40:53.274Z,49.36
2018-09-26T11:41:53.244Z,49.74
2018-09-26T11:42:53.206Z,49.74
2018-09-26T11:43:53.170Z,51.08
2018-09-26T11:44:53.159Z,50.32
2018-09-26T11:45:53.096Z,49.14
2018-09-26T11:46:53.070Z,50.20
2018-09-26T11:47:53.036Z,49.52
2018-09-26T11:48:52.996Z,50.70
2018-09-26T11:49:52.956Z,50.70
2018-09-26T11:50:52.925Z,50.60
2018-09-26T11:51:52.898Z,50.32
2018-09-26T11:52:52.861Z,50.60
2018-09-26T11:53:52.825Z,50.99
2018-09-26T11:54:52.785Z,51.28
2018-09-26T11:55:52.753Z,49.36
2018-09-26T11:56:52.715Z,49.36
2018-09-26T11:57:52.689Z,50.41
2018-09-26T11:58:52.650Z,50.03
2018-09-26T11:59:52.617Z,50.70
2018-09-26T12:00:52.587Z,49.65
2018-09-26T12:01:52.546Z,49.00
2018-09-26T12:02:52.513Z,49.55
2018-09-26T12:03:52.474Z,51.18
2018-09-26T12:04:52.442Z,50.89
2018-09-26T12:05:52.408Z,50.99
2018-09-26T12:06:52.369Z,50.70
2018-09-26T12:07:52.360Z,50.79
2018-09-26T12:08:52.302Z,50.89
2018-09-26T12:09:52.266Z,50.99
2018-09-26T12:10:52.237Z,51.28
2018-09-26T12:11:52.201Z,51.28
2018-09-26T12:12:52.174Z,51.75
2018-09-26T12:13:52.188Z,52.42
2018-09-26T12:14:52.094Z,52.42
2018-09-26T12:15:52.056Z,51.65
2018-09-26T12:16:52.022Z,52.33
2018-09-26T12:17:51.990Z,51.95
2018-09-26T12:18:51.958Z,51.08
2018-09-26T12:19:51.927Z,50.79
2018-09-26T12:20:51.884Z,50.60
2018-09-26T12:21:51.912Z,50.32
2018-09-26T12:22:51.825Z,50.60
2018-09-26T12:23:51.792Z,51.01
2018-09-26T12:24:51.754Z,51.59
2018-09-26T12:25:51.718Z,51.10
2018-09-26T12:26:51.679Z,51.10
2018-09-26T12:27:51.692Z,50.51
2018-09-26T12:28:51.612Z,51.37
2018-09-26T12:29:51.578Z,51.65
2018-09-26T12:30:51.543Z,50.92
2018-09-26T12:31:51.511Z,50.43
2018-09-26T12:32:51.478Z,50.43
2018-09-26T12:33:51.442Z,51.01
2018-09-26T12:34:51.421Z,49.67
2018-09-26T12:35:51.368Z,50.43
2018-09-26T12:36:51.341Z,50.34
2018-09-26T12:37:51.304Z,50.34
2018-09-26T12:38:51.275Z,51.10
2018-09-26T12:39:51.235Z,50.92
2018-09-26T12:40:51.199Z,50.24
2018-09-26T12:41:51.167Z,50.08
2018-09-26T12:42:51.233Z,49.00
2018-09-26T12:43:51.102Z,49.69
2018-09-26T12:44:51.074Z,49.69
2018-09-26T12:45:51.031Z,50.24
2018-09-26T12:46:50.995Z,51.01
2018-09-26T12:47:50.959Z,50.56
2018-09-26T12:48:50.926Z,51.10
2018-09-26T12:49:50.893Z,50.24
2018-09-26T12:50:50.859Z,50.94
2018-09-26T12:51:50.827Z,52.28
2018-09-26T12:52:50.795Z,51.54
2018-09-26T12:53:50.920Z,51.61
2018-09-26T12:54:50.723Z,49.62
2018-09-26T12:55:50.693Z,48.85
2018-09-26T12:56:50.659Z,48.95
2018-09-26T12:57:50.620Z,49.21
2018-09-26T12:58:50.589Z,50.75
2018-09-26T12:59:50.550Z,51.32
2018-09-26T13:00:50.522Z,51.61
2018-09-26T13:01:50.487Z,52.09
2018-09-26T13:02:50.458Z,51.90
2018-09-26T13:03:50.420Z,51.97
2018-09-26T13:04:50.388Z,52.09
2018-09-26T13:05:50.352Z,50.65
2018-09-26T13:06:50.318Z,52.07
2018-09-26T13:07:50.279Z,51.61
2018-09-26T13:08:50.251Z,51.04
2018-09-26T13:09:50.213Z,50.46
2018-09-26T13:10:50.186Z,51.23
2018-09-26T13:11:50.143Z,51.04
2018-09-26T13:12:50.109Z,51.90
2018-09-26T13:13:50.081Z,50.39
2018-09-26T13:14:50.044Z,50.17
2018-09-26T13:15:50.019Z,49.41
2018-09-26T13:16:49.978Z,49.88
2018-09-26T13:17:49.944Z,49.41
2018-09-26T13:18:49.965Z,50.17
2018-09-26T13:19:49.869Z,50.75
2018-09-26T13:20:49.838Z,50.84